sensor_id;sensor_type;location;lat;lon;timestamp;pressure;altitude;pressure_sealevel;temperature;humidity
76864;BME280;65834;52.364;9.754;2023-07-29T00:01:22;100141.84;;;20.55;76.12
76864;BME280;65834;52.364;9.754;2023-07-29T00:03:54;100141.59;;;20.57;76.49
76864;BME280;65834;52.364;9.754;2023-07-29T00:06:24;100134.94;;;20.48;76.97
76864;BME280;65834;52.364;9.754;2023-07-29T00:08:54;100136.06;;;20.52;76.17
76864;BME280;65834;52.364;9.754;2023-07-29T00:11:23;100133.91;;;20.54;76.19
76864;BME280;65834;52.364;9.754;2023-07-29T00:13:56;100142.09;;;20.49;76.27
76864;BME280;65834;52.364;9.754;2023-07-29T00:16:25;100147.03;;;20.47;76.61
76864;BME280;65834;52.364;9.754;2023-07-29T00:18:55;100136.88;;;20.47;76.32
76864;BME280;65834;52.364;9.754;2023-07-29T00:21:25;100148.09;;;20.46;76.37
76864;BME280;65834;52.364;9.754;2023-07-29T00:23:54;100148.09;;;20.46;75.98
76864;BME280;65834;52.364;9.754;2023-07-29T00:26:24;100150.84;;;20.46;75.75
76864;BME280;65834;52.364;9.754;2023-07-29T00:28:58;100156.94;;;20.48;75.85
76864;BME280;65834;52.364;9.754;2023-07-29T00:31:27;100149.47;;;20.43;76.07
76864;BME280;65834;52.364;9.754;2023-07-29T00:33:57;100144.78;;;20.39;76.59
76864;BME280;65834;52.364;9.754;2023-07-29T00:36:27;100137.09;;;20.41;76.53
76864;BME280;65834;52.364;9.754;2023-07-29T00:38:57;100131.03;;;20.39;76.09
76864;BME280;65834;52.364;9.754;2023-07-29T00:41:26;100136.22;;;20.35;76.33
76864;BME280;65834;52.364;9.754;2023-07-29T00:43:58;100143.88;;;20.33;76.61
76864;BME280;65834;52.364;9.754;2023-07-29T00:46:32;100142.78;;;20.29;76.83
76864;BME280;65834;52.364;9.754;2023-07-29T00:49:04;100138.13;;;20.30;76.71
76864;BME280;65834;52.364;9.754;2023-07-29T00:51:34;100130.13;;;20.28;76.71
76864;BME280;65834;52.364;9.754;2023-07-29T00:54:03;100121.31;;;20.26;76.83
76864;BME280;65834;52.364;9.754;2023-07-29T00:56:33;100124.81;;;20.22;77.20
76864;BME280;65834;52.364;9.754;2023-07-29T00:59:06;100126.19;;;20.19;76.92
76864;BME280;65834;52.364;9.754;2023-07-29T01:01:35;100129.44;;;20.16;76.94
76864;BME280;65834;52.364;9.754;2023-07-29T01:04:05;100135.78;;;20.17;77.09
76864;BME280;65834;52.364;9.754;2023-07-29T01:06:43;100144.25;;;20.15;76.92
76864;BME280;65834;52.364;9.754;2023-07-29T01:09:21;100141.50;;;20.15;77.20
76864;BME280;65834;52.364;9.754;2023-07-29T01:11:59;100132.16;;;20.11;77.30
76864;BME280;65834;52.364;9.754;2023-07-29T01:14:38;100133.56;;;20.14;76.94
76864;BME280;65834;52.364;9.754;2023-07-29T01:17:13;100136.53;;;20.12;76.96
76864;BME280;65834;52.364;9.754;2023-07-29T01:19:55;100121.44;;;20.10;76.90
76864;BME280;65834;52.364;9.754;2023-07-29T01:22:29;100118.03;;;19.97;77.57
76864;BME280;65834;52.364;9.754;2023-07-29T01:25:02;100110.84;;;19.91;77.84
76864;BME280;65834;52.364;9.754;2023-07-29T01:27:32;100105.91;;;19.93;77.28
76864;BME280;65834;52.364;9.754;2023-07-29T01:30:03;100114.97;;;19.94;77.71
76864;BME280;65834;52.364;9.754;2023-07-29T01:32:38;100107.25;;;19.91;77.93
76864;BME280;65834;52.364;9.754;2023-07-29T01:35:22;100116.59;;;19.90;77.66
76864;BME280;65834;52.364;9.754;2023-07-29T01:37:55;100111.53;;;19.77;78.32
76864;BME280;65834;52.364;9.754;2023-07-29T01:40:31;100121.44;;;19.78;78.13
76864;BME280;65834;52.364;9.754;2023-07-29T01:43:02;100124.69;;;19.75;78.42
76864;BME280;65834;52.364;9.754;2023-07-29T01:45:34;100129.88;;;19.71;78.67
76864;BME280;65834;52.364;9.754;2023-07-29T01:48:05;100116.72;;;19.73;78.32
76864;BME280;65834;52.364;9.754;2023-07-29T01:50:35;100114.78;;;19.74;78.59
76864;BME280;65834;52.364;9.754;2023-07-29T01:53:04;100118.69;;;19.78;78.10
76864;BME280;65834;52.364;9.754;2023-07-29T01:55:36;100115.34;;;19.76;78.50
76864;BME280;65834;52.364;9.754;2023-07-29T01:58:06;100120.53;;;19.72;78.31
76864;BME280;65834;52.364;9.754;2023-07-29T02:00:37;100119.66;;;19.67;78.87
76864;BME280;65834;52.364;9.754;2023-07-29T02:03:06;100109.72;;;19.61;78.66
76864;BME280;65834;52.364;9.754;2023-07-29T02:05:36;100108.97;;;19.65;78.84
76864;BME280;65834;52.364;9.754;2023-07-29T02:08:06;100101.53;;;19.66;78.75
76864;BME280;65834;52.364;9.754;2023-07-29T02:10:38;100098.44;;;19.57;79.33
76864;BME280;65834;52.364;9.754;2023-07-29T02:13:12;100088.31;;;19.63;78.80
76864;BME280;65834;52.364;9.754;2023-07-29T02:15:42;100097.97;;;19.65;78.87
76864;BME280;65834;52.364;9.754;2023-07-29T02:18:11;100103.72;;;19.64;78.81
76864;BME280;65834;52.364;9.754;2023-07-29T02:20:41;100097.38;;;19.63;79.17
76864;BME280;65834;52.364;9.754;2023-07-29T02:23:16;100102.63;;;19.65;78.82
76864;BME280;65834;52.364;9.754;2023-07-29T02:25:49;100087.53;;;19.62;78.95
76864;BME280;65834;52.364;9.754;2023-07-29T02:28:19;100090.50;;;19.61;79.13
76864;BME280;65834;52.364;9.754;2023-07-29T02:31:09;100084.19;;;19.60;79.05
76864;BME280;65834;52.364;9.754;2023-07-29T02:33:39;100084.50;;;19.64;78.91
76864;BME280;65834;52.364;9.754;2023-07-29T02:36:09;100085.06;;;19.66;78.93
76864;BME280;65834;52.364;9.754;2023-07-29T02:38:38;100085.66;;;19.68;78.86
76864;BME280;65834;52.364;9.754;2023-07-29T02:41:11;100087.81;;;19.66;79.00
76864;BME280;65834;52.364;9.754;2023-07-29T02:43:43;100079.84;;;19.64;79.36
76864;BME280;65834;52.364;9.754;2023-07-29T02:46:17;100086.72;;;19.67;79.06
76864;BME280;65834;52.364;9.754;2023-07-29T02:48:47;100092.50;;;19.65;79.07
76864;BME280;65834;52.364;9.754;2023-07-29T02:51:17;100085.84;;;19.61;79.44
76864;BME280;65834;52.364;9.754;2023-07-29T02:53:46;100087.81;;;19.66;79.04
76864;BME280;65834;52.364;9.754;2023-07-29T02:56:18;100083.34;;;19.60;79.47
76864;BME280;65834;52.364;9.754;2023-07-29T02:58:48;100087.00;;;19.65;79.12
76864;BME280;65834;52.364;9.754;2023-07-29T03:01:18;100082.84;;;19.63;79.08
76864;BME280;65834;52.364;9.754;2023-07-29T03:03:48;100091.66;;;19.65;79.20
76864;BME280;65834;52.364;9.754;2023-07-29T03:06:18;100091.59;;;19.60;79.37
76864;BME280;65834;52.364;9.754;2023-07-29T03:08:48;100097.06;;;19.60;79.46
76864;BME280;65834;52.364;9.754;2023-07-29T03:11:20;100092.91;;;19.52;79.62
76864;BME280;65834;52.364;9.754;2023-07-29T03:13:50;100087.72;;;19.56;79.68
76864;BME280;65834;52.364;9.754;2023-07-29T03:16:19;100094.31;;;19.60;79.59
76864;BME280;65834;52.364;9.754;2023-07-29T03:18:53;100085.28;;;19.59;79.48
76864;BME280;65834;52.364;9.754;2023-07-29T03:21:24;100081.13;;;19.57;79.77
76864;BME280;65834;52.364;9.754;2023-07-29T03:23:53;100069.81;;;19.48;80.31
76864;BME280;65834;52.364;9.754;2023-07-29T03:26:27;100070.41;;;19.50;79.93
76864;BME280;65834;52.364;9.754;2023-07-29T03:28:57;100071.72;;;19.47;80.72
76864;BME280;65834;52.364;9.754;2023-07-29T03:31:29;100073.69;;;19.52;80.65
76864;BME280;65834;52.364;9.754;2023-07-29T03:33:58;100070.22;;;19.62;79.72
76864;BME280;65834;52.364;9.754;2023-07-29T03:36:28;100068.75;;;19.54;80.54
76864;BME280;65834;52.364;9.754;2023-07-29T03:38:58;100065.72;;;19.51;80.12
76864;BME280;65834;52.364;9.754;2023-07-29T03:41:33;100068.38;;;19.40;81.06
76864;BME280;65834;52.364;9.754;2023-07-29T03:44:02;100072.31;;;19.50;80.36
76864;BME280;65834;52.364;9.754;2023-07-29T03:46:32;100065.53;;;19.35;80.81
76864;BME280;65834;52.364;9.754;2023-07-29T03:49:03;100069.38;;;19.34;81.41
76864;BME280;65834;52.364;9.754;2023-07-29T03:51:33;100068.53;;;19.34;81.41
76864;BME280;65834;52.364;9.754;2023-07-29T03:54:04;100058.13;;;19.36;81.31
76864;BME280;65834;52.364;9.754;2023-07-29T03:56:36;100055.06;;;19.32;81.72
76864;BME280;65834;52.364;9.754;2023-07-29T03:59:06;100064.41;;;19.31;81.41
76864;BME280;65834;52.364;9.754;2023-07-29T04:01:35;100061.06;;;19.29;81.56
76864;BME280;65834;52.364;9.754;2023-07-29T04:04:05;100060.34;;;19.39;81.31
76864;BME280;65834;52.364;9.754;2023-07-29T04:06:35;100067.06;;;19.48;80.97
76864;BME280;65834;52.364;9.754;2023-07-29T04:09:05;100061.56;;;19.48;80.80
76864;BME280;65834;52.364;9.754;2023-07-29T04:11:37;100063.63;;;19.36;81.59
76864;BME280;65834;52.364;9.754;2023-07-29T04:14:06;100064.69;;;19.35;81.35
76864;BME280;65834;52.364;9.754;2023-07-29T04:16:36;100063.56;;;19.31;81.61
76864;BME280;65834;52.364;9.754;2023-07-29T04:19:06;100061.66;;;19.31;81.85
76864;BME280;65834;52.364;9.754;2023-07-29T04:21:36;100052.41;;;19.37;83.14
76864;BME280;65834;52.364;9.754;2023-07-29T04:24:05;100049.28;;;19.29;84.04
76864;BME280;65834;52.364;9.754;2023-07-29T04:26:38;100045.44;;;19.30;85.31
76864;BME280;65834;52.364;9.754;2023-07-29T04:29:08;100039.97;;;19.30;85.40
76864;BME280;65834;52.364;9.754;2023-07-29T04:31:37;100030.88;;;19.51;83.61
76864;BME280;65834;52.364;9.754;2023-07-29T04:34:07;100024.97;;;19.37;84.58
76864;BME280;65834;52.364;9.754;2023-07-29T04:36:38;100034.06;;;19.16;86.01
76864;BME280;65834;52.364;9.754;2023-07-29T04:39:08;100033.97;;;19.06;86.91
76864;BME280;65834;52.364;9.754;2023-07-29T04:41:40;100045.75;;;19.07;86.54
76864;BME280;65834;52.364;9.754;2023-07-29T04:44:10;100040.88;;;19.14;85.56
76864;BME280;65834;52.364;9.754;2023-07-29T04:46:39;100043.69;;;19.19;85.62
76864;BME280;65834;52.364;9.754;2023-07-29T04:49:09;100048.53;;;19.12;86.55
76864;BME280;65834;52.364;9.754;2023-07-29T04:51:39;100044.72;;;19.13;85.27
76864;BME280;65834;52.364;9.754;2023-07-29T04:54:08;100045.69;;;19.02;85.79
76864;BME280;65834;52.364;9.754;2023-07-29T04:56:41;100044.22;;;19.16;85.12
76864;BME280;65834;52.364;9.754;2023-07-29T04:59:10;100056.41;;;19.03;85.73
76864;BME280;65834;52.364;9.754;2023-07-29T05:01:40;100062.41;;;19.00;85.90
76864;BME280;65834;52.364;9.754;2023-07-29T05:04:10;100065.84;;;19.12;85.50
76864;BME280;65834;52.364;9.754;2023-07-29T05:06:39;100069.22;;;19.19;86.86
76864;BME280;65834;52.364;9.754;2023-07-29T05:09:13;100061.50;;;19.16;85.71
76864;BME280;65834;52.364;9.754;2023-07-29T05:11:46;100053.44;;;19.31;86.39
76864;BME280;65834;52.364;9.754;2023-07-29T05:14:17;100049.22;;;19.24;87.56
76864;BME280;65834;52.364;9.754;2023-07-29T05:16:47;100038.72;;;19.16;87.67
76864;BME280;65834;52.364;9.754;2023-07-29T05:19:17;100024.44;;;19.14;88.01
76864;BME280;65834;52.364;9.754;2023-07-29T05:21:46;100024.16;;;19.10;88.24
76864;BME280;65834;52.364;9.754;2023-07-29T05:24:16;100020.69;;;18.98;89.58
76864;BME280;65834;52.364;9.754;2023-07-29T05:26:48;100028.41;;;19.01;88.88
76864;BME280;65834;52.364;9.754;2023-07-29T05:29:18;100021.59;;;19.04;88.31
76864;BME280;65834;52.364;9.754;2023-07-29T05:31:48;100010.94;;;19.07;88.94
76864;BME280;65834;52.364;9.754;2023-07-29T05:34:18;100018.38;;;19.12;88.92
76864;BME280;65834;52.364;9.754;2023-07-29T05:36:48;100012.69;;;19.18;89.25
76864;BME280;65834;52.364;9.754;2023-07-29T05:39:17;100019.16;;;19.34;87.78
76864;BME280;65834;52.364;9.754;2023-07-29T05:41:49;100007.84;;;19.25;87.64
76864;BME280;65834;52.364;9.754;2023-07-29T05:44:19;100008.97;;;19.29;88.12
76864;BME280;65834;52.364;9.754;2023-07-29T05:46:50;100019.69;;;19.31;87.84
76864;BME280;65834;52.364;9.754;2023-07-29T05:49:19;100018.03;;;19.30;87.83
76864;BME280;65834;52.364;9.754;2023-07-29T05:51:49;100016.06;;;19.25;88.95
76864;BME280;65834;52.364;9.754;2023-07-29T05:54:20;100026.00;;;19.31;88.63
76864;BME280;65834;52.364;9.754;2023-07-29T05:56:52;100026.94;;;19.15;88.68
76864;BME280;65834;52.364;9.754;2023-07-29T05:59:22;100029.97;;;19.19;88.87
76864;BME280;65834;52.364;9.754;2023-07-29T06:01:53;100026.44;;;19.23;88.74
76864;BME280;65834;52.364;9.754;2023-07-29T06:04:22;100020.72;;;19.25;88.51
76864;BME280;65834;52.364;9.754;2023-07-29T06:06:52;100023.72;;;19.23;88.28
76864;BME280;65834;52.364;9.754;2023-07-29T06:09:22;100029.66;;;19.15;89.37
76864;BME280;65834;52.364;9.754;2023-07-29T06:11:54;100025.25;;;19.14;89.17
76864;BME280;65834;52.364;9.754;2023-07-29T06:14:24;100025.53;;;19.13;89.09
76864;BME280;65834;52.364;9.754;2023-07-29T06:16:53;100030.19;;;19.12;89.62
76864;BME280;65834;52.364;9.754;2023-07-29T06:19:24;100026.13;;;19.20;89.18
76864;BME280;65834;52.364;9.754;2023-07-29T06:21:55;100018.03;;;19.30;89.11
76864;BME280;65834;52.364;9.754;2023-07-29T06:24:24;100017.25;;;19.34;89.04
76864;BME280;65834;52.364;9.754;2023-07-29T06:26:56;100018.06;;;19.35;88.57
76864;BME280;65834;52.364;9.754;2023-07-29T06:29:26;100019.72;;;19.36;88.49
76864;BME280;65834;52.364;9.754;2023-07-29T06:31:58;100020.63;;;19.41;88.84
76864;BME280;65834;52.364;9.754;2023-07-29T06:34:27;100017.38;;;19.44;88.50
76864;BME280;65834;52.364;9.754;2023-07-29T06:36:57;100030.56;;;19.47;88.33
76864;BME280;65834;52.364;9.754;2023-07-29T06:39:27;100030.56;;;19.47;88.30
76864;BME280;65834;52.364;9.754;2023-07-29T06:42:00;100042.72;;;19.57;88.57
76864;BME280;65834;52.364;9.754;2023-07-29T06:44:29;100049.34;;;19.61;87.96
76864;BME280;65834;52.364;9.754;2023-07-29T06:46:59;100045.00;;;19.65;88.07
76864;BME280;65834;52.364;9.754;2023-07-29T06:49:28;100047.22;;;19.68;88.09
76864;BME280;65834;52.364;9.754;2023-07-29T06:51:58;100047.53;;;19.71;88.16
76864;BME280;65834;52.364;9.754;2023-07-29T06:54:28;100051.47;;;19.80;87.75
76864;BME280;65834;52.364;9.754;2023-07-29T06:57:00;100050.66;;;19.85;87.92
76864;BME280;65834;52.364;9.754;2023-07-29T06:59:29;100049.56;;;19.86;88.35
76864;BME280;65834;52.364;9.754;2023-07-29T07:01:59;100046.84;;;19.91;88.06
76864;BME280;65834;52.364;9.754;2023-07-29T07:04:30;100043.66;;;19.99;87.84
76864;BME280;65834;52.364;9.754;2023-07-29T07:07:00;100044.50;;;20.05;86.12
76864;BME280;65834;52.364;9.754;2023-07-29T07:09:30;100050.03;;;20.10;86.91
76864;BME280;65834;52.364;9.754;2023-07-29T07:12:02;100048.13;;;20.10;86.25
76864;BME280;65834;52.364;9.754;2023-07-29T07:14:32;100057.19;;;20.11;86.74
76864;BME280;65834;52.364;9.754;2023-07-29T07:17:04;100050.31;;;20.08;86.84
76864;BME280;65834;52.364;9.754;2023-07-29T07:19:38;100050.31;;;20.08;86.95
76864;BME280;65834;52.364;9.754;2023-07-29T07:22:08;100053.59;;;20.10;86.65
76864;BME280;65834;52.364;9.754;2023-07-29T07:24:37;100046.22;;;20.16;87.74
76864;BME280;65834;52.364;9.754;2023-07-29T07:27:10;100042.41;;;20.22;87.28
76864;BME280;65834;52.364;9.754;2023-07-29T07:29:39;100033.66;;;20.25;86.80
76864;BME280;65834;52.364;9.754;2023-07-29T07:32:09;100051.53;;;20.27;87.19
76864;BME280;65834;52.364;9.754;2023-07-29T07:34:38;100049.28;;;20.24;86.46
76864;BME280;65834;52.364;9.754;2023-07-29T07:37:08;100049.03;;;20.21;86.53
76864;BME280;65834;52.364;9.754;2023-07-29T07:39:38;100044.41;;;20.26;86.41
76864;BME280;65834;52.364;9.754;2023-07-29T07:42:10;100039.97;;;20.25;86.55
76864;BME280;65834;52.364;9.754;2023-07-29T07:44:39;100035.38;;;20.31;86.17
76864;BME280;65834;52.364;9.754;2023-07-29T07:47:09;100032.13;;;20.39;85.20
76864;BME280;65834;52.364;9.754;2023-07-29T07:49:38;100026.09;;;20.42;85.49
76864;BME280;65834;52.364;9.754;2023-07-29T07:52:08;100029.69;;;20.47;84.96
76864;BME280;65834;52.364;9.754;2023-07-29T07:54:38;100020.91;;;20.45;84.97
76864;BME280;65834;52.364;9.754;2023-07-29T07:57:10;100022.00;;;20.49;84.61
76864;BME280;65834;52.364;9.754;2023-07-29T07:59:39;100018.44;;;20.49;84.56
76864;BME280;65834;52.364;9.754;2023-07-29T08:02:09;100008.56;;;20.53;84.62
76864;BME280;65834;52.364;9.754;2023-07-29T08:04:39;100017.66;;;20.59;83.89
76864;BME280;65834;52.364;9.754;2023-07-29T08:07:10;100025.66;;;20.65;84.03
76864;BME280;65834;52.364;9.754;2023-07-29T08:09:40;100032.53;;;20.68;83.38
76864;BME280;65834;52.364;9.754;2023-07-29T08:12:12;100033.06;;;20.65;83.38
76864;BME280;65834;52.364;9.754;2023-07-29T08:14:45;100038.31;;;20.71;83.43
76864;BME280;65834;52.364;9.754;2023-07-29T08:17:15;100035.56;;;20.66;84.46
76864;BME280;65834;52.364;9.754;2023-07-29T08:19:44;100030.31;;;20.65;84.64
76864;BME280;65834;52.364;9.754;2023-07-29T08:22:14;100027.09;;;20.73;83.43
76864;BME280;65834;52.364;9.754;2023-07-29T08:24:49;100016.59;;;20.65;84.31
76864;BME280;65834;52.364;9.754;2023-07-29T08:27:21;100020.16;;;20.65;84.75
76864;BME280;65834;52.364;9.754;2023-07-29T08:29:51;100029.84;;;20.78;84.21
76864;BME280;65834;52.364;9.754;2023-07-29T08:32:22;100026.56;;;20.81;83.40
76864;BME280;65834;52.364;9.754;2023-07-29T08:34:52;100034.53;;;20.82;82.44
76864;BME280;65834;52.364;9.754;2023-07-29T08:37:22;100037.53;;;20.76;82.54
76864;BME280;65834;52.364;9.754;2023-07-29T08:39:51;100039.72;;;20.74;83.00
76864;BME280;65834;52.364;9.754;2023-07-29T08:42:28;100039.75;;;20.79;82.55
76864;BME280;65834;52.364;9.754;2023-07-29T08:45:04;100043.34;;;20.79;82.19
76864;BME280;65834;52.364;9.754;2023-07-29T08:47:35;100037.00;;;20.79;82.03
76864;BME280;65834;52.364;9.754;2023-07-29T08:50:07;100026.31;;;20.82;81.93
76864;BME280;65834;52.364;9.754;2023-07-29T08:52:41;100032.34;;;20.84;81.85
76864;BME280;65834;52.364;9.754;2023-07-29T08:55:12;100027.97;;;20.88;81.72
76864;BME280;65834;52.364;9.754;2023-07-29T08:57:44;100032.63;;;20.88;81.67
76864;BME280;65834;52.364;9.754;2023-07-29T09:00:14;100029.59;;;20.84;81.70
76864;BME280;65834;52.364;9.754;2023-07-29T09:02:47;100036.47;;;20.82;81.91
76864;BME280;65834;52.364;9.754;2023-07-29T09:05:16;100035.63;;;20.86;81.55
76864;BME280;65834;52.364;9.754;2023-07-29T09:07:47;100036.22;;;20.88;81.30
76864;BME280;65834;52.364;9.754;2023-07-29T09:10:21;100034.84;;;20.91;81.15
76864;BME280;65834;52.364;9.754;2023-07-29T09:12:55;100031.56;;;20.94;81.61
76864;BME280;65834;52.364;9.754;2023-07-29T09:15:28;100028.28;;;20.97;81.00
76864;BME280;65834;52.364;9.754;2023-07-29T09:17:58;100026.63;;;21.01;80.73
76864;BME280;65834;52.364;9.754;2023-07-29T09:20:29;100023.31;;;20.99;80.63
76864;BME280;65834;52.364;9.754;2023-07-29T09:22:59;100014.81;;;21.05;79.72
76864;BME280;65834;52.364;9.754;2023-07-29T09:25:29;100016.78;;;21.10;79.37
76864;BME280;65834;52.364;9.754;2023-07-29T09:28:07;100010.22;;;21.16;78.87
76864;BME280;65834;52.364;9.754;2023-07-29T09:30:37;100009.38;;;21.26;80.03
76864;BME280;65834;52.364;9.754;2023-07-29T09:33:07;100014.06;;;21.30;79.20
76864;BME280;65834;52.364;9.754;2023-07-29T09:35:37;100009.69;;;21.34;78.92
76864;BME280;65834;52.364;9.754;2023-07-29T09:38:07;100005.28;;;21.33;78.24
76864;BME280;65834;52.364;9.754;2023-07-29T09:40:39;99997.56;;;21.35;76.70
76864;BME280;65834;52.364;9.754;2023-07-29T09:43:16;99995.63;;;21.36;76.85
76864;BME280;65834;52.364;9.754;2023-07-29T09:45:46;99989.31;;;21.35;77.36
76864;BME280;65834;52.364;9.754;2023-07-29T09:48:19;100001.16;;;21.41;78.56
76864;BME280;65834;52.364;9.754;2023-07-29T09:50:51;100006.38;;;21.42;81.56
76864;BME280;65834;52.364;9.754;2023-07-29T09:53:21;100021.78;;;21.38;83.46
76864;BME280;65834;52.364;9.754;2023-07-29T09:55:53;100018.47;;;21.21;79.78
76864;BME280;65834;52.364;9.754;2023-07-29T09:58:28;100020.09;;;21.17;80.25
76864;BME280;65834;52.364;9.754;2023-07-29T10:00:58;100013.50;;;21.23;80.23
76864;BME280;65834;52.364;9.754;2023-07-29T10:03:28;100023.97;;;21.26;78.93
76864;BME280;65834;52.364;9.754;2023-07-29T10:06:00;100009.38;;;21.21;77.10
76864;BME280;65834;52.364;9.754;2023-07-29T10:08:31;100004.69;;;21.26;77.61
76864;BME280;65834;52.364;9.754;2023-07-29T10:11:02;99999.78;;;21.33;77.45
76864;BME280;65834;52.364;9.754;2023-07-29T10:13:35;99995.94;;;21.34;77.46
76864;BME280;65834;52.364;9.754;2023-07-29T10:16:04;99994.84;;;21.40;77.83
76864;BME280;65834;52.364;9.754;2023-07-29T10:18:34;99997.03;;;21.43;78.20
76864;BME280;65834;52.364;9.754;2023-07-29T10:21:05;99998.44;;;21.56;78.67
76864;BME280;65834;52.364;9.754;2023-07-29T10:23:38;99991.53;;;21.53;77.25
76864;BME280;65834;52.364;9.754;2023-07-29T10:26:13;99988.78;;;21.58;76.30
76864;BME280;65834;52.364;9.754;2023-07-29T10:28:49;99992.91;;;21.61;75.32
76864;BME280;65834;52.364;9.754;2023-07-29T10:31:21;99993.72;;;21.67;73.32
76864;BME280;65834;52.364;9.754;2023-07-29T10:33:52;99995.94;;;21.75;73.74
76864;BME280;65834;52.364;9.754;2023-07-29T10:36:22;99995.94;;;21.70;73.35
76864;BME280;65834;52.364;9.754;2023-07-29T10:38:52;99997.06;;;21.69;73.90
76864;BME280;65834;52.364;9.754;2023-07-29T10:41:22;99994.28;;;21.74;73.26
76864;BME280;65834;52.364;9.754;2023-07-29T10:43:54;99985.19;;;21.73;72.55
76864;BME280;65834;52.364;9.754;2023-07-29T10:46:24;99992.09;;;21.81;71.47
76864;BME280;65834;52.364;9.754;2023-07-29T10:48:56;99992.63;;;21.83;69.11
76864;BME280;65834;52.364;9.754;2023-07-29T10:51:27;99986.03;;;21.99;68.41
76864;BME280;65834;52.364;9.754;2023-07-29T10:54:01;99993.19;;;22.00;68.66
76864;BME280;65834;52.364;9.754;2023-07-29T10:56:32;99990.72;;;21.98;68.55
76864;BME280;65834;52.364;9.754;2023-07-29T10:59:31;99982.69;;;22.12;67.27
76864;BME280;65834;52.364;9.754;2023-07-29T11:02:02;99983.78;;;22.21;66.31
76864;BME280;65834;52.364;9.754;2023-07-29T11:04:50;99978.53;;;22.30;63.73
76864;BME280;65834;52.364;9.754;2023-07-29T11:07:29;99987.31;;;22.37;63.80
76864;BME280;65834;52.364;9.754;2023-07-29T11:10:00;99978.22;;;22.41;64.61
76864;BME280;65834;52.364;9.754;2023-07-29T11:12:42;99993.50;;;22.83;61.98
76864;BME280;65834;52.364;9.754;2023-07-29T11:15:22;99997.16;;;22.63;64.57
76864;BME280;65834;52.364;9.754;2023-07-29T11:17:53;100001.91;;;22.47;65.00
76864;BME280;65834;52.364;9.754;2023-07-29T11:20:25;100003.78;;;22.57;65.32
76864;BME280;65834;52.364;9.754;2023-07-29T11:22:57;99985.63;;;22.46;65.37
76864;BME280;65834;52.364;9.754;2023-07-29T11:25:29;99997.53;;;22.31;66.42
76864;BME280;65834;52.364;9.754;2023-07-29T11:28:00;99987.59;;;22.35;66.39
76864;BME280;65834;52.364;9.754;2023-07-29T11:30:38;99991.75;;;22.33;65.50
76864;BME280;65834;52.364;9.754;2023-07-29T11:33:09;99985.97;;;22.24;66.11
76864;BME280;65834;52.364;9.754;2023-07-29T11:35:39;99989.25;;;22.31;64.32
76864;BME280;65834;52.364;9.754;2023-07-29T11:38:15;99998.38;;;22.27;65.07
76864;BME280;65834;52.364;9.754;2023-07-29T11:40:54;99995.84;;;22.40;61.38
76864;BME280;65834;52.364;9.754;2023-07-29T11:43:24;100005.13;;;22.64;59.71
76864;BME280;65834;52.364;9.754;2023-07-29T11:45:56;99998.28;;;22.67;58.11
76864;BME280;65834;52.364;9.754;2023-07-29T11:48:31;100004.31;;;22.74;57.62
76864;BME280;65834;52.364;9.754;2023-07-29T11:51:02;100007.78;;;23.00;54.95
76864;BME280;65834;52.364;9.754;2023-07-29T11:53:32;100007.91;;;22.70;58.88
76864;BME280;65834;52.364;9.754;2023-07-29T11:56:03;100021.63;;;22.85;54.97
76864;BME280;65834;52.364;9.754;2023-07-29T11:58:33;100015.00;;;22.91;54.51
76864;BME280;65834;52.364;9.754;2023-07-29T12:01:05;100011.66;;;22.89;55.60
76864;BME280;65834;52.364;9.754;2023-07-29T12:03:35;100016.09;;;22.95;55.64
76864;BME280;65834;52.364;9.754;2023-07-29T12:06:06;100017.06;;;23.19;53.59
76864;BME280;65834;52.364;9.754;2023-07-29T12:08:36;100024.50;;;23.18;53.53
76864;BME280;65834;52.364;9.754;2023-07-29T12:11:06;100012.56;;;22.74;54.61
76864;BME280;65834;52.364;9.754;2023-07-29T12:13:36;100025.72;;;22.92;53.53
76864;BME280;65834;52.364;9.754;2023-07-29T12:16:08;100021.59;;;22.95;54.67
76864;BME280;65834;52.364;9.754;2023-07-29T12:18:38;100028.00;;;23.34;52.64
76864;BME280;65834;52.364;9.754;2023-07-29T12:21:08;100027.94;;;23.44;53.17
76864;BME280;65834;52.364;9.754;2023-07-29T12:23:37;100032.41;;;23.40;53.41
76864;BME280;65834;52.364;9.754;2023-07-29T12:26:07;100035.94;;;22.97;56.70
76864;BME280;65834;52.364;9.754;2023-07-29T12:28:37;100028.25;;;23.33;52.85
76864;BME280;65834;52.364;9.754;2023-07-29T12:31:09;100026.69;;;23.21;55.46
76864;BME280;65834;52.364;9.754;2023-07-29T12:33:39;100021.84;;;23.47;53.58
76864;BME280;65834;52.364;9.754;2023-07-29T12:36:08;100021.91;;;23.76;52.05
76864;BME280;65834;52.364;9.754;2023-07-29T12:38:38;100021.56;;;24.16;51.07
76864;BME280;65834;52.364;9.754;2023-07-29T12:41:08;100013.03;;;24.13;50.68
76864;BME280;65834;52.364;9.754;2023-07-29T12:43:38;100015.09;;;23.97;49.73
76864;BME280;65834;52.364;9.754;2023-07-29T12:46:10;100026.13;;;24.02;51.83
76864;BME280;65834;52.364;9.754;2023-07-29T12:48:39;100011.28;;;23.93;53.65
76864;BME280;65834;52.364;9.754;2023-07-29T12:51:09;100017.84;;;24.78;48.65
76864;BME280;65834;52.364;9.754;2023-07-29T12:53:39;100014.06;;;24.46;49.83
76864;BME280;65834;52.364;9.754;2023-07-29T12:56:09;100008.34;;;24.37;49.69
76864;BME280;65834;52.364;9.754;2023-07-29T12:58:39;100004.31;;;24.53;48.53
76864;BME280;65834;52.364;9.754;2023-07-29T13:01:11;100006.84;;;24.50;49.81
76864;BME280;65834;52.364;9.754;2023-07-29T13:03:45;100010.59;;;24.35;50.93
76864;BME280;65834;52.364;9.754;2023-07-29T13:06:15;100004.56;;;24.33;50.34
76864;BME280;65834;52.364;9.754;2023-07-29T13:08:45;100003.97;;;24.36;49.65
76864;BME280;65834;52.364;9.754;2023-07-29T13:11:16;100009.34;;;24.46;48.96